createdAt,value
2018-10-05T00:00:30.163Z,12.70
2018-10-05T00:02:59.019Z,12.50
2018-10-05T00:05:27.806Z,12.40
2018-10-05T00:07:56.578Z,12.40
2018-10-05T00:10:26.007Z,12.10
2018-10-05T00:12:55.031Z,12.10
2018-10-05T00:15:23.785Z,12.10
2018-10-05T00:17:52.676Z,12.30
2018-10-05T00:20:22.176Z,12.10
2018-10-05T00:22:51.371Z,12.10
2018-10-05T00:25:20.471Z,12.20
2018-10-05T00:27:49.224Z,12.30
2018-10-05T00:30:17.976Z,12.30
2018-10-05T00:32:48.311Z,12.20
2018-10-05T00:35:17.182Z,12.20
2018-10-05T00:37:46.070Z,12.40
2018-10-05T00:40:15.032Z,12.40
2018-10-05T00:42:43.927Z,12.30
2018-10-05T00:45:12.677Z,12.60
2018-10-05T00:47:41.669Z,12.40
2018-10-05T00:50:10.877Z,12.50
2018-10-05T00:52:39.835Z,12.70
2018-10-05T00:55:09.623Z,12.90
2018-10-05T00:57:38.591Z,12.90
2018-10-05T01:00:07.793Z,13.00
2018-10-05T01:02:36.649Z,12.80
2018-10-05T01:05:05.532Z,13.40
2018-10-05T01:07:34.492Z,13.40
2018-10-05T01:10:03.316Z,13.10
2018-10-05T01:12:32.221Z,13.20
2018-10-05T01:15:01.120Z,12.80
2018-10-05T01:17:30.242Z,13.00
2018-10-05T01:19:59.179Z,12.80
2018-10-05T01:22:28.041Z,12.80
2018-10-05T01:24:57.098Z,13.30
2018-10-05T01:27:26.007Z,13.10
2018-10-05T01:29:54.949Z,13.70
2018-10-05T01:32:23.781Z,13.70
2018-10-05T01:34:52.572Z,13.70
2018-10-05T01:37:21.655Z,13.80
2018-10-05T01:39:51.877Z,13.50
2018-10-05T01:42:20.863Z,13.70
2018-10-05T01:44:49.789Z,13.70
2018-10-05T01:47:18.686Z,14.00
2018-10-05T01:49:47.559Z,13.50
2018-10-05T01:52:16.414Z,13.80
2018-10-05T01:54:45.439Z,13.80
2018-10-05T01:57:15.406Z,13.80
2018-10-05T01:59:44.468Z,14.00
2018-10-05T02:02:13.420Z,13.60
2018-10-05T02:04:42.571Z,13.80
2018-10-05T02:07:11.610Z,13.80
2018-10-05T02:09:40.527Z,13.80
2018-10-05T02:12:09.485Z,13.80
2018-10-05T02:14:38.241Z,14.00
2018-10-05T02:17:07.136Z,13.80
2018-10-05T02:19:36.036Z,14.00
2018-10-05T02:22:04.940Z,13.70
2018-10-05T02:24:33.837Z,14.00
2018-10-05T02:27:02.670Z,13.70
2018-10-05T02:29:31.556Z,14.10
2018-10-05T02:32:00.426Z,13.50
2018-10-05T02:34:29.213Z,13.50
2018-10-05T02:36:58.005Z,13.40
2018-10-05T02:39:26.881Z,13.10
2018-10-05T02:41:56.448Z,12.90
2018-10-05T02:44:26.540Z,12.80
2018-10-05T02:46:55.348Z,12.80
2018-10-05T02:49:24.142Z,12.80
2018-10-05T02:51:52.998Z,13.00
2018-10-05T02:54:22.249Z,12.50
2018-10-05T02:56:51.000Z,12.50
2018-10-05T02:59:20.887Z,12.50
2018-10-05T03:02:00.733Z,12.20
2018-10-05T03:07:02.013Z,12.30
2018-10-05T03:09:31.809Z,12.00
2018-10-05T03:12:00.587Z,12.10
2018-10-05T03:14:29.788Z,11.90
2018-10-05T03:16:59.205Z,11.80
2018-10-05T03:19:28.083Z,11.70
2018-10-05T03:21:56.957Z,11.70
2018-10-05T03:24:25.734Z,11.40
2018-10-05T03:26:54.548Z,11.10
2018-10-05T03:29:23.461Z,11.00
2018-10-05T03:31:52.190Z,11.00
2018-10-05T03:34:20.940Z,11.20
2018-10-05T03:36:49.934Z,11.00
2018-10-05T03:39:18.536Z,11.20
2018-10-05T03:41:47.431Z,11.10
2018-10-05T03:44:16.282Z,11.10
2018-10-05T03:46:44.870Z,10.90
2018-10-05T03:49:13.898Z,10.70
2018-10-05T03:51:42.608Z,10.70
2018-10-05T03:54:11.251Z,10.60
2018-10-05T03:56:40.474Z,10.50
2018-10-05T03:59:09.173Z,10.60
2018-10-05T04:01:37.860Z,10.50
2018-10-05T04:04:06.708Z,10.40
2018-10-05T04:06:35.405Z,10.40
2018-10-05T04:09:05.358Z,10.50
2018-10-05T04:11:34.244Z,10.30
2018-10-05T04:14:03.554Z,10.40
2018-10-05T04:16:32.409Z,10.40
2018-10-05T04:19:01.316Z,10.30
2018-10-05T04:21:30.027Z,10.40
2018-10-05T04:23:58.757Z,10.40
2018-10-05T04:26:27.426Z,10.30
2018-10-05T04:28:56.165Z,10.30
2018-10-05T04:31:25.072Z,10.50
2018-10-05T04:33:53.790Z,10.50
2018-10-05T04:36:23.331Z,10.50
2018-10-05T04:38:52.494Z,10.80
2018-10-05T04:41:21.474Z,10.80
2018-10-05T04:43:50.407Z,10.70
2018-10-05T04:46:19.143Z,10.70
2018-10-05T04:48:47.804Z,10.60
2018-10-05T04:51:17.394Z,10.50
2018-10-05T04:53:46.179Z,10.50
2018-10-05T04:56:14.986Z,10.50
2018-10-05T04:58:43.722Z,10.50
2018-10-05T05:01:12.453Z,10.50
2018-10-05T05:03:41.565Z,10.50
2018-10-05T05:06:10.437Z,10.30
2018-10-05T05:08:39.676Z,10.50
2018-10-05T05:11:08.707Z,10.20
2018-10-05T05:13:37.947Z,10.20
2018-10-05T05:16:06.829Z,10.30
2018-10-05T05:18:35.734Z,10.20
2018-10-05T05:21:06.255Z,10.60
2018-10-05T05:23:37.195Z,11.10
2018-10-05T05:26:08.358Z,11.10
2018-10-05T05:28:39.448Z,11.60
2018-10-05T05:31:11.663Z,11.40
2018-10-05T05:33:43.337Z,11.70
2018-10-05T05:36:24.472Z,11.60
2018-10-05T05:38:58.073Z,11.70
2018-10-05T05:41:28.827Z,11.60
2018-10-05T05:43:58.911Z,11.80
2018-10-05T05:46:31.936Z,11.80
2018-10-05T05:49:03.048Z,11.80
2018-10-05T05:51:32.412Z,11.90
2018-10-05T05:54:01.845Z,12.00
2018-10-05T05:56:39.107Z,11.80
2018-10-05T05:59:13.953Z,12.10
2018-10-05T06:01:48.295Z,12.00
2018-10-05T06:04:32.123Z,12.20
2018-10-05T06:07:01.577Z,12.10
2018-10-05T06:09:31.942Z,12.00
2018-10-05T06:12:04.788Z,12.10
2018-10-05T06:14:40.677Z,12.00
2018-10-05T06:17:11.122Z,12.10
2018-10-05T06:19:45.292Z,12.10
2018-10-05T06:22:17.367Z,12.10
2018-10-05T06:24:47.194Z,12.00
2018-10-05T06:27:16.995Z,12.10
2018-10-05T06:29:46.433Z,12.00
2018-10-05T06:32:17.855Z,12.00
2018-10-05T06:34:49.774Z,12.00
2018-10-05T06:37:19.568Z,12.00
2018-10-05T06:39:51.794Z,12.10
2018-10-05T06:42:23.512Z,12.00
2018-10-05T06:44:53.234Z,12.40
2018-10-05T06:47:25.223Z,12.00
2018-10-05T06:49:56.238Z,12.30
2018-10-05T06:52:26.416Z,12.30
2018-10-05T06:55:02.324Z,12.30
2018-10-05T06:57:32.825Z,12.30
2018-10-05T07:00:11.466Z,12.40
2018-10-05T07:02:42.692Z,12.30
2018-10-05T07:05:21.735Z,12.40
2018-10-05T07:07:55.037Z,12.50
2018-10-05T07:10:26.437Z,12.40
2018-10-05T07:12:57.367Z,12.30
2018-10-05T07:15:27.673Z,12.40
2018-10-05T07:18:01.551Z,12.70
2018-10-05T07:20:35.166Z,12.50
2018-10-05T07:23:10.981Z,12.70
2018-10-05T07:25:43.537Z,12.70
2018-10-05T07:28:14.390Z,12.70
2018-10-05T07:30:43.718Z,12.80
2018-10-05T07:33:18.430Z,12.70
2018-10-05T07:35:48.832Z,12.70
2018-10-05T07:38:18.714Z,12.70
2018-10-05T07:40:48.193Z,12.70
2018-10-05T07:43:18.991Z,13.00
2018-10-05T07:45:51.592Z,13.10
2018-10-05T07:48:26.482Z,13.10
2018-10-05T07:50:56.194Z,13.20
2018-10-05T07:53:29.989Z,13.50
2018-10-05T07:55:59.671Z,13.40
2018-10-05T07:58:35.657Z,13.50
2018-10-05T08:01:08.613Z,13.60
2018-10-05T08:03:39.324Z,13.50
2018-10-05T08:06:13.132Z,13.80
2018-10-05T08:08:46.950Z,13.70
2018-10-05T08:11:15.984Z,13.70
2018-10-05T08:13:46.777Z,13.80
2018-10-05T08:16:17.153Z,13.90
2018-10-05T08:18:46.648Z,14.20
2018-10-05T08:21:17.397Z,14.00
2018-10-05T08:23:47.393Z,14.10
2018-10-05T08:26:25.637Z,14.10
2018-10-05T08:28:54.967Z,14.40
2018-10-05T08:31:25.229Z,14.50
2018-10-05T08:33:54.258Z,14.50
2018-10-05T08:36:24.844Z,14.30
2018-10-05T08:38:59.177Z,14.50
2018-10-05T08:41:38.952Z,14.70
2018-10-05T08:44:11.565Z,14.70
2018-10-05T08:46:44.737Z,15.00
2018-10-05T08:49:20.752Z,15.00
2018-10-05T08:51:51.958Z,14.90
2018-10-05T08:54:27.560Z,15.10
2018-10-05T08:56:57.064Z,15.20
2018-10-05T08:59:27.760Z,15.10
2018-10-05T09:04:43.577Z,15.40
2018-10-05T09:07:13.467Z,15.30
2018-10-05T09:09:49.956Z,15.20
2018-10-05T09:12:21.548Z,15.10
2018-10-05T09:14:51.399Z,15.40
2018-10-05T09:17:23.929Z,15.30
2018-10-05T09:19:54.835Z,15.40
2018-10-05T09:22:32.992Z,15.60
2018-10-05T09:25:03.641Z,15.70
2018-10-05T09:27:32.745Z,15.80
2018-10-05T09:30:02.394Z,15.90
2018-10-05T09:32:32.089Z,16.00
2018-10-05T09:35:04.166Z,16.10
2018-10-05T09:37:34.029Z,16.20
2018-10-05T09:40:11.745Z,16.20
2018-10-05T09:42:42.686Z,16.10
2018-10-05T09:45:15.719Z,16.30
2018-10-05T09:47:45.868Z,16.40
2018-10-05T09:50:15.151Z,16.50
2018-10-05T09:52:45.668Z,16.60
2018-10-05T09:55:18.054Z,16.60
2018-10-05T09:57:47.132Z,16.70
2018-10-05T10:00:23.705Z,16.60
2018-10-05T10:02:58.666Z,16.70
2018-10-05T10:05:27.543Z,16.80
2018-10-05T10:07:59.631Z,16.80
2018-10-05T10:10:28.643Z,16.80
2018-10-05T10:12:59.098Z,16.80
2018-10-05T10:15:40.062Z,17.00
2018-10-05T10:18:11.311Z,16.80
2018-10-05T10:20:46.292Z,16.70
2018-10-05T10:23:15.258Z,16.80
2018-10-05T10:25:44.169Z,16.70
2018-10-05T10:28:19.241Z,16.80
2018-10-05T10:30:48.496Z,17.10
2018-10-05T10:33:18.124Z,16.90
2018-10-05T10:35:58.283Z,17.00
2018-10-05T10:38:28.494Z,17.10
2018-10-05T10:41:01.660Z,17.20
2018-10-05T10:43:31.335Z,17.10
2018-10-05T10:46:07.548Z,17.30
2018-10-05T10:48:38.537Z,17.20
2018-10-05T10:51:11.623Z,17.10
2018-10-05T10:53:47.980Z,17.20
2018-10-05T10:56:22.222Z,17.30
2018-10-05T10:58:51.628Z,17.20
2018-10-05T11:01:21.336Z,17.30
2018-10-05T11:03:56.098Z,17.30
2018-10-05T11:06:25.699Z,17.50
2018-10-05T11:08:55.270Z,17.70
2018-10-05T11:11:28.672Z,17.70
2018-10-05T11:13:58.192Z,17.70
2018-10-05T11:16:30.234Z,17.50
2018-10-05T11:19:00.018Z,17.50
2018-10-05T11:21:29.424Z,17.70
2018-10-05T11:24:06.031Z,18.00
2018-10-05T11:26:35.133Z,18.30
2018-10-05T11:29:04.872Z,18.60
2018-10-05T11:31:41.123Z,18.60
2018-10-05T11:34:11.292Z,18.40
2018-10-05T11:36:40.410Z,18.30
2018-10-05T11:39:10.653Z,18.40
2018-10-05T11:41:42.667Z,18.70
2018-10-05T11:44:14.096Z,18.80
2018-10-05T11:46:44.320Z,18.80
2018-10-05T11:49:13.205Z,18.80
2018-10-05T11:51:43.239Z,18.90
2018-10-05T11:54:12.210Z,19.00
2018-10-05T11:56:44.003Z,19.00
2018-10-05T11:59:14.127Z,19.00
2018-10-05T12:01:49.560Z,19.00
2018-10-05T12:04:18.357Z,19.30
2018-10-05T12:06:49.885Z,19.40
2018-10-05T12:09:20.209Z,19.30
2018-10-05T12:14:43.615Z,19.20
2018-10-05T12:17:12.770Z,19.50
2018-10-05T12:19:44.095Z,19.60
2018-10-05T12:22:14.167Z,19.60
2018-10-05T12:24:48.242Z,19.60
2018-10-05T12:27:22.337Z,19.50
2018-10-05T12:29:51.498Z,19.50
2018-10-05T12:32:26.855Z,19.40
2018-10-05T12:35:01.886Z,19.60
2018-10-05T12:37:31.059Z,19.80
2018-10-05T12:40:02.328Z,19.90
2018-10-05T12:42:36.064Z,19.80
2018-10-05T12:45:08.573Z,19.80
2018-10-05T12:47:40.398Z,19.50
2018-10-05T12:52:59.330Z,19.80
2018-10-05T12:55:28.781Z,19.80
2018-10-05T12:58:02.191Z,20.00
2018-10-05T13:00:34.852Z,19.80
2018-10-05T13:03:03.709Z,19.90
2018-10-05T13:05:34.280Z,20.00
2018-10-05T13:08:09.358Z,19.90
2018-10-05T13:10:41.048Z,20.00
2018-10-05T13:13:10.102Z,20.10
2018-10-05T13:15:43.306Z,20.10
2018-10-05T13:18:14.737Z,20.20
2018-10-05T13:20:44.111Z,20.20
2018-10-05T13:23:14.217Z,20.30
2018-10-05T13:25:43.389Z,20.40
2018-10-05T13:28:13.803Z,20.20
2018-10-05T13:30:45.837Z,20.20
2018-10-05T13:33:16.221Z,20.40
2018-10-05T13:35:47.641Z,20.50
2018-10-05T13:38:22.349Z,20.50
2018-10-05T13:40:51.207Z,20.50
2018-10-05T13:43:22.986Z,20.70
2018-10-05T13:45:51.905Z,20.50
2018-10-05T13:48:26.119Z,20.50
2018-10-05T13:50:55.219Z,20.50
2018-10-05T13:53:25.226Z,20.40
2018-10-05T13:55:55.477Z,20.30
2018-10-05T13:58:26.175Z,20.30
2018-10-05T14:00:55.097Z,20.30
2018-10-05T14:03:25.289Z,20.30
2018-10-05T14:05:54.153Z,20.30
2018-10-05T14:08:23.179Z,20.30
2018-10-05T14:10:53.247Z,20.20
2018-10-05T14:13:22.708Z,20.20
2018-10-05T14:15:59.884Z,20.20
2018-10-05T14:18:29.177Z,20.40
2018-10-05T14:21:03.330Z,20.30
2018-10-05T14:23:32.174Z,20.40
2018-10-05T14:26:01.067Z,20.40
2018-10-05T14:28:36.253Z,20.40
2018-10-05T14:31:06.240Z,20.60
2018-10-05T14:33:43.061Z,20.60
2018-10-05T14:36:19.114Z,20.50
2018-10-05T14:38:48.548Z,20.40
2018-10-05T14:41:18.412Z,20.60
2018-10-05T14:43:48.732Z,20.70
2018-10-05T14:46:20.448Z,20.60
2018-10-05T14:48:49.248Z,20.40
2018-10-05T14:51:19.219Z,20.50
2018-10-05T14:53:48.729Z,20.40
2018-10-05T14:56:20.155Z,20.10
2018-10-05T14:58:49.281Z,20.10
2018-10-05T15:01:20.558Z,20.00
2018-10-05T15:03:55.226Z,19.90
2018-10-05T15:06:26.565Z,19.80
2018-10-05T15:09:00.939Z,19.80
2018-10-05T15:11:30.343Z,19.70
2018-10-05T15:13:59.926Z,19.80
2018-10-05T15:16:30.559Z,19.80
2018-10-05T15:19:04.059Z,19.70
2018-10-05T15:21:33.354Z,19.60
2018-10-05T15:24:05.167Z,19.50
2018-10-05T15:26:34.386Z,19.40
2018-10-05T15:29:04.309Z,19.30
2018-10-05T15:31:34.111Z,19.20
2018-10-05T15:34:04.417Z,19.20
2018-10-05T15:36:34.210Z,19.10
2018-10-05T15:39:08.889Z,19.10
2018-10-05T15:41:38.382Z,19.00
2018-10-05T15:44:10.021Z,19.00
2018-10-05T15:47:42.085Z,18.90
2018-10-05T15:50:11.381Z,18.80
2018-10-05T15:52:43.652Z,18.70
2018-10-05T15:55:17.555Z,18.70
2018-10-05T15:57:49.127Z,18.70
2018-10-05T16:00:20.515Z,18.70
2018-10-05T16:02:49.118Z,18.60
2018-10-05T16:05:18.052Z,18.60
2018-10-05T16:07:49.131Z,18.50
2018-10-05T16:10:22.053Z,18.40
2018-10-05T16:12:51.866Z,18.40
2018-10-05T16:15:30.045Z,18.30
2018-10-05T16:18:04.854Z,18.30
2018-10-05T16:20:36.139Z,18.20
2018-10-05T16:23:06.793Z,18.10
2018-10-05T16:25:36.334Z,18.10
2018-10-05T16:28:07.611Z,18.00
2018-10-05T16:30:36.716Z,18.00
2018-10-05T16:33:12.326Z,17.90
2018-10-05T16:35:44.087Z,17.80
2018-10-05T16:38:13.897Z,17.90
2018-10-05T16:40:43.813Z,17.90
2018-10-05T16:43:13.929Z,17.80
2018-10-05T16:45:44.380Z,17.70
2018-10-05T16:48:13.874Z,17.70
2018-10-05T16:50:59.987Z,17.60
2018-10-05T16:53:31.806Z,17.50
2018-10-05T16:56:01.173Z,17.40
2018-10-05T16:58:32.170Z,17.40
2018-10-05T17:01:00.815Z,17.40
2018-10-05T17:03:33.980Z,17.40
2018-10-05T17:06:05.011Z,17.40
2018-10-05T17:08:36.628Z,17.40
2018-10-05T17:11:05.983Z,17.20
2018-10-05T17:13:38.474Z,17.30
2018-10-05T17:16:08.067Z,17.40
2018-10-05T17:18:38.961Z,17.30
2018-10-05T17:21:09.458Z,17.00
2018-10-05T17:23:38.930Z,16.80
2018-10-05T17:26:09.198Z,16.60
2018-10-05T17:28:39.073Z,16.50
2018-10-05T17:31:09.229Z,16.30
2018-10-05T17:33:38.720Z,16.10
2018-10-05T17:36:07.809Z,16.10
2018-10-05T17:38:36.617Z,15.90
2018-10-05T17:41:05.266Z,15.80
2018-10-05T17:43:33.881Z,15.50
2018-10-05T17:46:03.100Z,15.70
2018-10-05T17:48:32.131Z,15.80
2018-10-05T17:51:00.896Z,15.80
2018-10-05T17:53:29.617Z,15.70
2018-10-05T17:55:58.252Z,15.70
2018-10-05T17:58:26.978Z,15.80
2018-10-05T18:00:56.060Z,15.80
2018-10-05T18:03:24.893Z,15.80
2018-10-05T18:05:53.650Z,15.70
2018-10-05T18:08:26.019Z,15.70
2018-10-05T18:10:54.931Z,15.60
2018-10-05T18:13:23.774Z,15.60
2018-10-05T18:15:52.665Z,15.30
2018-10-05T18:18:21.833Z,15.50
2018-10-05T18:20:52.111Z,15.30
2018-10-05T18:23:21.660Z,15.20
2018-10-05T18:25:50.367Z,15.10
2018-10-05T18:28:19.093Z,14.80
2018-10-05T18:30:47.829Z,14.90
2018-10-05T18:33:16.493Z,14.90
2018-10-05T18:35:45.354Z,14.90
2018-10-05T18:38:14.087Z,14.90
2018-10-05T18:40:42.991Z,14.90
2018-10-05T18:43:11.758Z,14.90
2018-10-05T18:45:41.149Z,15.00
2018-10-05T18:48:09.789Z,14.90
2018-10-05T18:50:38.388Z,14.90
2018-10-05T18:53:07.162Z,14.90
2018-10-05T18:55:35.736Z,14.80
2018-10-05T18:58:04.399Z,15.00
2018-10-05T19:00:33.178Z,14.90
2018-10-05T19:03:02.215Z,15.00
2018-10-05T19:05:31.212Z,14.90
2018-10-05T19:08:00.382Z,14.90
2018-10-05T19:10:30.324Z,14.90
2018-10-05T19:12:59.463Z,14.90
2018-10-05T19:15:29.077Z,14.90
2018-10-05T19:17:57.712Z,14.80
2018-10-05T19:20:26.412Z,14.90
2018-10-05T19:22:55.181Z,15.00
2018-10-05T19:25:23.841Z,14.50
2018-10-05T19:27:52.752Z,14.90
2018-10-05T19:30:21.494Z,14.60
2018-10-05T19:32:50.693Z,14.60
2018-10-05T19:35:19.836Z,14.60
2018-10-05T19:37:48.521Z,14.60
2018-10-05T19:40:17.372Z,14.60
2018-10-05T19:42:46.617Z,14.50
2018-10-05T19:45:15.384Z,14.50
2018-10-05T19:47:44.908Z,14.50
2018-10-05T19:50:13.526Z,14.50
2018-10-05T19:52:42.377Z,14.20
2018-10-05T19:55:11.095Z,14.40
2018-10-05T19:57:40.286Z,14.10
2018-10-05T20:00:08.959Z,14.10
2018-10-05T20:02:37.633Z,14.10
2018-10-05T20:05:06.375Z,14.00
2018-10-05T20:07:35.309Z,14.00
2018-10-05T20:10:04.270Z,14.00
2018-10-05T20:12:33.037Z,14.00
2018-10-05T20:15:01.789Z,14.10
2018-10-05T20:17:30.616Z,14.20
2018-10-05T20:19:59.218Z,14.00
2018-10-05T20:22:28.211Z,13.90
2018-10-05T20:24:57.421Z,14.00
2018-10-05T20:27:26.497Z,13.80
2018-10-05T20:29:55.465Z,13.80
2018-10-05T20:32:24.271Z,13.80
2018-10-05T20:34:53.162Z,13.70
2018-10-05T20:37:21.908Z,13.80
2018-10-05T20:39:51.132Z,13.70
2018-10-05T20:42:19.761Z,13.80
2018-10-05T20:44:48.564Z,13.60
2018-10-05T20:47:18.225Z,13.70
2018-10-05T20:49:47.180Z,13.80
2018-10-05T20:52:15.768Z,13.50
2018-10-05T20:54:45.427Z,13.80
2018-10-05T20:57:14.119Z,13.60
2018-10-05T20:59:42.837Z,13.70
2018-10-05T21:02:11.531Z,13.60
2018-10-05T21:04:40.245Z,13.70
2018-10-05T21:07:08.720Z,13.70
2018-10-05T21:09:37.408Z,13.70
2018-10-05T21:12:06.133Z,13.80
2018-10-05T21:14:35.518Z,13.70
2018-10-05T21:17:04.409Z,13.70
2018-10-05T21:19:36.719Z,13.40
2018-10-05T21:22:11.598Z,13.30
2018-10-05T21:24:40.955Z,13.30
2018-10-05T21:27:11.753Z,13.40
2018-10-05T21:29:41.983Z,13.30
2018-10-05T21:32:12.440Z,13.40
2018-10-05T21:34:42.850Z,13.20
2018-10-05T21:37:12.676Z,13.20
2018-10-05T21:39:43.448Z,13.30
2018-10-05T21:42:13.757Z,13.10
2018-10-05T21:44:43.543Z,13.10
2018-10-05T21:47:14.079Z,13.10
2018-10-05T21:49:44.570Z,13.10
2018-10-05T21:52:14.389Z,13.10
2018-10-05T21:54:43.575Z,13.30
2018-10-05T21:57:12.247Z,13.10
2018-10-05T21:59:47.513Z,12.90
2018-10-05T22:02:17.202Z,12.90
2018-10-05T22:04:47.385Z,13.20
2018-10-05T22:07:17.281Z,13.10
2018-10-05T22:09:47.115Z,13.40
2018-10-05T22:12:17.606Z,13.10
2018-10-05T22:14:48.016Z,13.20
2018-10-05T22:17:17.847Z,13.20
2018-10-05T22:19:48.639Z,13.20
2018-10-05T22:22:18.371Z,13.30
2018-10-05T22:24:48.457Z,13.70
2018-10-05T22:27:20.768Z,13.50
2018-10-05T22:29:51.045Z,13.70
2018-10-05T22:32:21.045Z,13.60
2018-10-05T22:34:52.050Z,13.90
2018-10-05T22:37:21.772Z,13.90
2018-10-05T22:39:51.793Z,13.70
2018-10-05T22:42:21.156Z,13.80
2018-10-05T22:44:50.056Z,13.70
2018-10-05T22:47:20.230Z,13.80
2018-10-05T22:49:49.955Z,13.80
2018-10-05T22:52:18.834Z,13.70
2018-10-05T22:54:47.912Z,13.80
2018-10-05T22:57:18.202Z,13.70
2018-10-05T22:59:50.462Z,13.70
2018-10-05T23:02:20.305Z,13.40
2018-10-05T23:04:49.366Z,13.50
2018-10-05T23:07:18.871Z,13.20
2018-10-05T23:09:49.394Z,13.30
2018-10-05T23:12:20.011Z,13.20
2018-10-05T23:14:50.288Z,13.40
2018-10-05T23:17:20.824Z,13.40
2018-10-05T23:19:50.369Z,13.40
2018-10-05T23:22:20.612Z,13.30
2018-10-05T23:24:51.126Z,13.40
2018-10-05T23:27:21.400Z,13.20
2018-10-05T23:29:53.027Z,13.50
2018-10-05T23:32:22.366Z,13.40
2018-10-05T23:34:51.876Z,13.60
2018-10-05T23:37:22.197Z,13.70
2018-10-05T23:39:52.911Z,13.80
2018-10-05T23:42:22.000Z,14.10
2018-10-05T23:44:51.303Z,14.40
2018-10-05T23:47:20.128Z,14.60
2018-10-05T23:49:49.252Z,14.80
2018-10-05T23:52:38.811Z,14.80
2018-10-05T23:55:08.137Z,14.90
2018-10-05T23:57:37.843Z,14.90
